Time;durP1;ratioP1;P1;durP2;ratioP2;P2;SDS_P1;SDS_P2;PMS_P1;PMS_P2;Temp;Humidity;BMP_temperature;BMP_pressure;BME280_temperature;BME280_humidity;BME280_pressure;Samples;Min_cycle;Max_cycle;Signal;HPM_P1;HPM_P2
2021/04/06 00:02:13;;;;;;;12.13;9.00;;;;;;;1.99;68.19;98086.12;1808559;79;21086;-61
2021/04/06 00:04:42;;;;;;;13.53;8.98;;;;;;;1.98;68.30;98082.71;1807914;79;21501;-61
2021/04/06 00:07:12;;;;;;;13.25;9.53;;;;;;;1.99;68.40;98079.27;1808612;79;21052;-62
2021/04/06 00:09:41;;;;;;;10.55;7.80;;;;;;;1.99;68.40;98078.42;1780177;78;22276;-62
2021/04/06 00:12:09;;;;;;;9.20;8.10;;;;;;;1.98;68.45;98073.73;1779753;79;21062;-61
2021/04/06 00:14:37;;;;;;;10.18;7.53;;;;;;;1.97;68.47;98065.64;1779607;79;21487;-63
2021/04/06 00:17:07;;;;;;;10.00;7.80;;;;;;;1.97;68.48;98067.38;1779465;79;21565;-63
2021/04/06 00:19:38;;;;;;;11.25;8.18;;;;;;;1.95;68.54;98071.26;1808538;79;21128;-60
2021/04/06 00:22:05;;;;;;;12.33;9.13;;;;;;;1.92;68.53;98070.06;1808501;79;21329;-63
2021/04/06 00:24:36;;;;;;;15.32;10.40;;;;;;;1.92;68.47;98075.19;1812427;79;21148;-62
2021/04/06 00:27:11;;;;;;;16.65;10.40;;;;;;;1.91;68.43;98070.11;1814223;79;21104;-62
2021/04/06 00:29:40;;;;;;;19.15;10.85;;;;;;;1.87;68.40;98067.22;1814231;79;21073;-62
2021/04/06 00:32:07;;;;;;;14.25;8.85;;;;;;;1.85;68.48;98072.39;1787314;79;21041;-62
2021/04/06 00:34:35;;;;;;;12.07;8.63;;;;;;;1.83;68.52;98074.59;1813981;79;22272;-63
2021/04/06 00:37:07;;;;;;;9.60;8.20;;;;;;;1.80;68.55;98076.80;1761598;79;21133;-63
2021/04/06 00:39:36;;;;;;;8.65;6.75;;;;;;;1.79;68.60;98071.75;1748953;79;21108;-63
2021/04/06 00:42:13;;;;;;;11.38;8.18;;;;;;;1.76;68.67;98067.55;1813602;79;21112;-62
2021/04/06 00:44:51;;;;;;;13.58;8.93;;;;;;;1.74;68.69;98075.72;1813626;78;21041;-63
2021/04/06 00:47:31;;;;;;;11.97;8.18;;;;;;;1.75;68.52;98074.84;1813699;77;22219;-62
2021/04/06 00:50:08;;;;;;;16.70;8.93;;;;;;;1.72;68.46;98064.23;1813571;78;21069;-62
2021/04/06 00:52:44;;;;;;;14.45;9.43;;;;;;;1.67;68.51;98064.79;1813591;79;20923;-62
2021/04/06 00:55:19;;;;;;;11.70;8.75;;;;;;;1.65;68.53;98056.30;1787030;79;21191;-62
2021/04/06 00:57:47;;;;;;;11.45;9.00;;;;;;;1.62;68.59;98059.38;1813649;79;21084;-63
2021/04/06 01:00:22;;;;;;;13.22;9.45;;;;;;;1.59;68.70;98062.91;1813615;79;21354;-63
2021/04/06 01:03:02;;;;;;;12.65;8.40;;;;;;;1.57;68.79;98065.11;1813527;78;21504;-62
2021/04/06 01:06:00;;;;;;;13.25;8.05;;;;;;;1.54;68.93;98057.06;1813712;78;21481;-63
2021/04/06 01:08:30;;;;;;;18.60;8.93;;;;;;;1.51;69.06;98059.70;1813721;78;21473;-62
2021/04/06 01:11:00;;;;;;;17.92;10.40;;;;;;;1.50;69.26;98060.58;1813683;79;21061;-62
2021/04/06 01:13:28;;;;;;;15.03;9.30;;;;;;;1.51;69.25;98058.86;1787193;79;21387;-62
2021/04/06 01:15:55;;;;;;;11.57;7.65;;;;;;;1.48;69.28;98053.38;1813593;79;21553;-62
2021/04/06 01:18:24;;;;;;;10.55;7.92;;;;;;;1.46;69.50;98040.20;1786995;79;21632;-62
2021/04/06 01:20:54;;;;;;;12.47;8.13;;;;;;;1.45;69.60;98030.84;1748643;79;21608;-62
2021/04/06 01:23:22;;;;;;;9.80;7.58;;;;;;;1.45;69.79;98030.40;1812156;79;21191;-63
2021/04/06 01:25:56;;;;;;;9.40;7.72;;;;;;;1.45;69.82;98031.68;1799998;78;21254;-62
2021/04/06 01:28:28;;;;;;;11.10;7.58;;;;;;;1.49;69.81;98043.97;1799919;79;21160;-62
2021/04/06 01:30:57;;;;;;;11.17;8.63;;;;;;;1.51;69.77;98044.33;1800305;78;21100;-63
2021/04/06 01:33:30;;;;;;;9.35;7.22;;;;;;;1.52;69.72;98044.73;1800025;79;21805;-63
2021/04/06 01:36:02;;;;;;;22.37;9.25;;;;;;;1.52;69.76;98046.45;1800071;79;21068;-63
2021/04/06 01:38:29;;;;;;;15.28;8.48;;;;;;;1.52;69.82;98047.73;1800082;79;22296;-63
2021/04/06 01:40:59;;;;;;;13.90;8.03;;;;;;;1.49;69.90;98042.25;1799884;79;21084;-63
2021/04/06 01:43:31;;;;;;;14.25;8.63;;;;;;;1.47;69.98;98042.73;1799981;78;21486;-63
2021/04/06 01:46:15;;;;;;;12.30;8.05;;;;;;;1.45;69.96;98049.61;1799930;79;21046;-63
2021/04/06 01:48:34;;;;;;;11.12;7.75;;;;;;;1.44;70.02;98040.24;1799020;78;21096;-63
2021/04/06 01:51:02;;;;;;;14.45;8.05;;;;;;;1.42;70.01;98043.28;1759205;79;22248;-63
2021/04/06 01:53:30;;;;;;;10.18;7.78;;;;;;;1.41;70.02;98041.61;1799840;79;21057;-63
2021/04/06 01:56:04;;;;;;;13.25;7.53;;;;;;;1.40;70.10;98039.11;1799951;79;21509;-63
2021/04/06 01:58:30;;;;;;;11.50;7.90;;;;;;;1.40;70.07;98035.27;1799739;79;21068;-63
2021/04/06 02:03:36;;;;;;;9.63;7.85;;;;;;;1.37;70.13;98037.03;1799919;79;21354;-63
2021/04/06 02:06:03;;;;;;;9.58;7.05;;;;;;;1.36;70.09;98034.07;1799825;78;21180;-63
2021/04/06 02:08:31;;;;;;;10.23;7.97;;;;;;;1.36;69.98;98039.20;1799900;79;21120;-63
2021/04/06 02:11:01;;;;;;;19.87;9.80;;;;;;;1.33;69.94;98043.55;1800005;79;21481;-63
2021/04/06 02:13:28;;;;;;;9.98;8.05;;;;;;;1.28;70.12;98034.70;1799930;79;21070;-63
2021/04/06 02:16:00;;;;;;;10.35;7.30;;;;;;;1.28;70.27;98032.59;1799926;79;21137;-63
2021/04/06 02:18:30;;;;;;;12.00;7.40;;;;;;;1.27;70.23;98036.87;1800192;79;21056;-62
2021/04/06 02:21:00;;;;;;;12.58;7.83;;;;;;;1.29;70.14;98035.11;1799909;78;21072;-63
2021/04/06 02:23:44;;;;;;;14.63;8.05;;;;;;;1.29;70.09;98036.39;1799827;79;21461;-63
2021/04/06 02:26:14;;;;;;;9.98;7.62;;;;;;;1.27;70.01;98026.63;1799959;79;21032;-63
2021/04/06 02:28:42;;;;;;;9.53;7.40;;;;;;;1.28;69.99;98033.87;1799933;79;21366;-63
2021/04/06 02:31:10;;;;;;;30.27;9.78;;;;;;;1.25;69.96;98034.79;1799824;79;21085;-63
2021/04/06 02:33:38;;;;;;;13.55;8.13;;;;;;;1.25;69.97;98041.63;1800102;79;21437;-62
2021/04/06 02:36:09;;;;;;;11.53;7.85;;;;;;;1.24;69.98;98039.95;1800038;79;21079;-63
2021/04/06 02:38:42;;;;;;;11.45;8.48;;;;;;;1.25;69.95;98037.34;1800192;79;21421;-63
2021/04/06 02:41:15;;;;;;;10.70;7.55;;;;;;;1.25;69.93;98044.19;1799733;79;21270;-63
2021/04/06 02:43:51;;;;;;;10.35;7.17;;;;;;;1.26;69.95;98044.59;1799541;79;21588;-63
2021/04/06 02:46:25;;;;;;;12.00;7.95;;;;;;;1.27;70.01;98043.27;1799963;79;21057;-63
2021/04/06 02:48:57;;;;;;;11.53;8.15;;;;;;;1.29;69.99;98041.95;1799883;78;21163;-62
2021/04/06 02:51:25;;;;;;;12.45;8.00;;;;;;;1.31;70.07;98047.88;1800056;79;21104;-61
2021/04/06 02:53:54;;;;;;;10.75;7.60;;;;;;;1.33;70.01;98045.67;1799847;79;21238;-61
2021/04/06 02:56:33;;;;;;;18.30;8.23;;;;;;;1.35;69.95;98042.64;1799998;79;21604;-61
2021/04/06 02:59:20;;;;;;;13.08;7.00;;;;;;;1.38;70.00;98037.44;1799908;79;21049;-61
2021/04/06 03:01:51;;;;;;;12.70;7.67;;;;;;;1.43;69.99;98030.88;1800002;79;21489;-61
2021/04/06 03:04:25;;;;;;;11.75;7.42;;;;;;;1.46;69.96;98032.08;1784437;79;21060;-61
2021/04/06 03:06:55;;;;;;;11.85;7.70;;;;;;;1.52;69.88;98043.45;1799892;79;21136;-61
2021/04/06 03:09:24;;;;;;;17.98;7.83;;;;;;;1.55;69.77;98047.20;1799982;79;21148;-61
2021/04/06 03:11:54;;;;;;;11.00;8.10;;;;;;;1.56;69.68;98047.61;1799962;79;21501;-62
2021/04/06 03:14:23;;;;;;;11.45;8.08;;;;;;;1.57;69.70;98050.57;1799887;79;21068;-61
2021/04/06 03:16:53;;;;;;;12.47;7.95;;;;;;;1.61;69.67;98048.30;1799899;78;21056;-62
2021/04/06 03:19:30;;;;;;;9.75;7.37;;;;;;;1.66;69.53;98049.02;1799956;79;22256;-61
2021/04/06 03:21:58;;;;;;;12.73;8.18;;;;;;;1.69;69.49;98044.25;1799824;79;21053;-62
2021/04/06 03:24:28;;;;;;;9.23;7.50;;;;;;;1.72;69.30;98053.13;1799776;78;21522;-62
2021/04/06 03:27:01;;;;;;;10.63;8.08;;;;;;;1.73;69.29;98052.25;1799886;79;21112;-62
2021/04/06 03:29:30;;;;;;;11.12;7.85;;;;;;;1.76;69.21;98050.89;1800106;78;21453;-62
2021/04/06 03:31:59;;;;;;;13.80;8.15;;;;;;;1.77;69.03;98053.84;1799962;79;22312;-62
2021/04/06 03:34:37;;;;;;;12.03;7.58;;;;;;;1.75;69.04;98055.61;1799825;79;21058;-62
2021/04/06 03:37:06;;;;;;;14.90;8.10;;;;;;;1.73;69.21;98059.50;1799880;79;21116;-62
2021/04/06 03:39:36;;;;;;;10.75;7.50;;;;;;;1.71;69.44;98055.30;1799927;78;21120;-63
2021/04/06 03:42:05;;;;;;;11.22;8.25;;;;;;;1.76;69.59;98048.77;1799937;79;21124;-61
2021/04/06 03:44:32;;;;;;;11.73;8.83;;;;;;;1.87;69.58;98050.13;1799880;79;22238;-61
2021/04/06 03:47:03;;;;;;;19.57;10.43;;;;;;;1.99;69.41;98052.78;1799787;78;21920;-62
2021/04/06 03:49:32;;;;;;;15.75;9.13;;;;;;;2.05;69.22;98061.11;1799843;79;21048;-62
2021/04/06 03:52:08;;;;;;;13.15;8.53;;;;;;;2.20;69.14;98057.23;1799877;79;21056;-62
2021/04/06 03:54:44;;;;;;;18.95;12.05;;;;;;;2.40;68.80;98057.91;1799955;79;21596;-62
2021/04/06 04:00:02;;;;;;;18.77;11.85;;;;;;;2.76;67.48;98048.22;1799525;79;21088;-61
2021/04/06 04:02:31;;;;;;;34.10;13.08;;;;;;;2.91;67.02;98048.98;1784848;79;21067;-61
2021/04/06 04:05:00;;;;;;;67.50;15.03;;;;;;;3.00;66.42;98046.09;1799732;78;21552;-61
2021/04/06 04:07:28;;;;;;;27.75;9.68;;;;;;;3.06;66.04;98048.91;1799960;79;21048;-62
2021/04/06 04:09:56;;;;;;;11.88;8.28;;;;;;;3.07;65.87;98048.86;1799949;78;22236;-62
2021/04/06 04:12:23;;;;;;;15.48;8.60;;;;;;;3.09;65.84;98046.23;1799998;79;21123;-62
2021/04/06 04:14:50;;;;;;;16.05;9.08;;;;;;;3.11;65.75;98044.46;1800061;79;21465;-62
2021/04/06 04:17:20;;;;;;;15.60;8.28;;;;;;;3.14;65.71;98045.64;1799881;79;21060;-62
2021/04/06 04:19:48;;;;;;;19.17;9.23;;;;;;;3.11;65.60;98044.46;1800004;79;21036;-62
2021/04/06 04:22:16;;;;;;;20.90;8.53;;;;;;;3.13;65.64;98052.11;1799973;79;21349;-62
2021/04/06 04:24:43;;;;;;;30.88;9.63;;;;;;;3.18;65.51;98047.22;1799699;79;21131;-63
2021/04/06 04:27:12;;;;;;;13.58;8.45;;;;;;;3.29;65.37;98048.13;1799960;79;21148;-62
2021/04/06 04:29:40;;;;;;;28.52;13.32;;;;;;;3.40;65.18;98045.55;1799916;79;21989;-62
2021/04/06 04:32:13;;;;;;;15.60;9.65;;;;;;;3.52;65.02;98043.45;1799958;79;21105;-62
2021/04/06 04:34:37;;;;;;;22.22;8.60;;;;;;;3.62;64.74;98037.91;1799776;79;21200;-62
2021/04/06 04:37:05;;;;;;;11.43;7.95;;;;;;;3.77;64.31;98024.97;1799996;79;21121;-62
2021/04/06 04:39:32;;;;;;;27.05;10.30;;;;;;;3.94;64.12;98030.76;1799943;79;21187;-62
2021/04/06 04:42:01;;;;;;;13.22;8.13;;;;;;;4.17;63.56;98029.89;1799959;79;21037;-62
2021/04/06 04:44:29;;;;;;;55.28;10.53;;;;;;;4.47;63.15;98033.37;1799899;79;21485;-63
2021/04/06 04:46:57;;;;;;;42.17;10.68;;;;;;;4.72;62.31;98031.10;1799959;78;21198;-62
2021/04/06 04:49:24;;;;;;;22.82;9.05;;;;;;;4.93;61.54;98030.67;1799881;79;21124;-63
2021/04/06 04:51:52;;;;;;;18.15;10.20;;;;;;;5.06;60.66;98034.39;1799910;79;21390;-63
2021/04/06 04:54:20;;;;;;;52.75;11.20;;;;;;;5.14;60.61;98034.47;1799908;78;21502;-63
2021/04/06 04:56:48;;;;;;;53.33;11.38;;;;;;;5.35;60.17;98031.88;1799914;79;21077;-63
2021/04/06 04:59:15;;;;;;;81.85;14.65;;;;;;;5.55;59.75;98033.14;1799941;78;22396;-62
2021/04/06 05:01:43;;;;;;;54.73;10.85;;;;;;;5.79;58.92;98024.77;1799861;79;21679;-62
2021/04/06 05:04:10;;;;;;;36.03;10.20;;;;;;;5.92;58.37;98032.36;1799864;79;21041;-62
2021/04/06 05:06:38;;;;;;;18.23;8.75;;;;;;;6.05;58.13;98039.91;1799910;79;21037;-63
2021/04/06 05:09:07;;;;;;;12.37;8.20;;;;;;;6.19;57.55;98032.35;1799921;79;21096;-62
2021/04/06 05:11:35;;;;;;;19.12;9.15;;;;;;;6.35;57.29;98027.78;1797528;78;22334;-65
2021/04/06 05:14:03;;;;;;;20.97;9.93;;;;;;;6.52;56.79;98031.69;1798108;79;21116;-63
2021/04/06 05:16:31;;;;;;;16.25;9.70;;;;;;;6.69;56.85;98029.58;1798808;79;21138;-61
2021/04/06 05:18:59;;;;;;;34.85;10.60;;;;;;;6.91;56.36;98030.20;1799766;79;21465;-64
2021/04/06 05:21:27;;;;;;;26.52;9.65;;;;;;;7.02;55.61;98025.77;1799864;79;21103;-63
2021/04/06 05:23:55;;;;;;;39.15;10.88;;;;;;;7.02;55.46;98036.11;1799771;79;21192;-64
2021/04/06 05:26:22;;;;;;;34.60;10.38;;;;;;;6.97;55.62;98035.08;1806408;79;21482;-63
2021/04/06 05:28:50;;;;;;;19.57;9.20;;;;;;;6.92;55.50;98035.75;1806914;79;21041;-63
2021/04/06 05:31:18;;;;;;;17.40;9.70;;;;;;;6.88;55.65;98026.47;1806125;79;21483;-64
2021/04/06 05:33:46;;;;;;;29.30;9.85;;;;;;;6.91;55.82;98040.54;1805968;79;21110;-63
2021/04/06 05:36:14;;;;;;;30.25;9.90;;;;;;;6.99;55.57;98050.05;1805982;79;21356;-63
2021/04/06 05:38:42;;;;;;;20.65;9.85;;;;;;;7.04;55.26;98052.39;1806671;78;21585;-65
2021/04/06 05:41:09;;;;;;;21.93;10.25;;;;;;;7.04;54.73;98065.31;1806418;78;21149;-64
2021/04/06 05:43:38;;;;;;;48.33;11.95;;;;;;;7.02;54.96;98074.44;1807776;78;21143;-64
2021/04/06 05:46:07;;;;;;;15.28;9.35;;;;;;;7.05;55.16;98070.41;1807215;78;21089;-64
2021/04/06 05:48:35;;;;;;;28.12;9.68;;;;;;;7.14;55.00;98075.14;1755995;79;21382;-62
2021/04/06 05:51:04;;;;;;;28.52;10.00;;;;;;;7.26;54.55;98067.22;1807804;79;21582;-69
2021/04/06 05:53:32;;;;;;;19.02;8.75;;;;;;;7.31;54.50;98064.41;1807829;79;21230;-62
2021/04/06 05:56:01;;;;;;;32.67;9.35;;;;;;;7.39;53.98;98054.52;1779090;79;21511;-63
2021/04/06 05:58:29;;;;;;;21.73;9.53;;;;;;;7.44;53.96;98055.09;1807731;78;21462;-63
2021/04/06 06:00:59;;;;;;;26.45;10.03;;;;;;;7.50;53.98;98048.32;1807728;78;22459;-62
2021/04/06 06:03:30;;;;;;;46.65;11.90;;;;;;;7.57;53.58;98045.35;1807808;78;21096;-63
2021/04/06 06:05:58;;;;;;;21.68;9.03;;;;;;;7.66;53.27;98046.61;1781374;78;21570;-64
2021/04/06 06:08:26;;;;;;;26.02;9.68;;;;;;;7.66;53.04;98044.02;1811327;78;21598;-62
2021/04/06 06:11:05;;;;;;;25.15;9.33;;;;;;;7.68;53.38;98051.70;1829949;78;21125;-62
2021/04/06 06:13:36;;;;;;;20.27;8.28;;;;;;;7.81;53.18;98055.31;1829937;78;21186;-60
2021/04/06 06:16:14;;;;;;;22.17;8.38;;;;;;;7.99;52.86;98053.06;1829701;78;21090;-61
2021/04/06 06:19:01;;;;;;;15.80;7.58;;;;;;;8.13;52.29;98047.97;1829623;78;21624;-62
2021/04/06 06:21:51;;;;;;;37.23;9.83;;;;;;;8.36;51.99;98048.05;1774779;79;23363;-62
2021/04/06 06:24:31;;;;;;;32.45;8.68;;;;;;;8.44;51.41;98052.33;1748436;80;21582;-63
2021/04/06 06:26:58;;;;;;;19.75;7.42;;;;;;;8.51;50.91;98051.08;1749430;82;21436;-61
2021/04/06 06:29:34;;;;;;;17.42;7.75;;;;;;;8.61;50.40;98057.86;1746196;82;21068;-62
2021/04/06 06:31:59;;;;;;;18.48;8.43;;;;;;;8.70;50.15;98056.53;1749102;82;21512;-60
2021/04/06 06:34:36;;;;;;;27.20;8.33;;;;;;;8.75;49.97;98054.52;1749551;81;21469;-60
2021/04/06 06:37:26;;;;;;;23.02;9.85;;;;;;;8.79;49.75;98056.02;1749647;82;21588;-60
2021/04/06 06:40:02;;;;;;;33.88;10.40;;;;;;;8.84;49.76;98056.58;1749453;82;21375;-61
2021/04/06 06:42:38;;;;;;;23.70;8.98;;;;;;;8.93;49.98;98059.95;1749636;81;21567;-62
2021/04/06 06:45:23;;;;;;;32.23;9.08;;;;;;;8.97;49.65;98064.05;1720445;82;21084;-62
2021/04/06 06:47:56;;;;;;;20.88;7.83;;;;;;;9.01;49.66;98061.62;1737045;82;21155;-61
2021/04/06 06:50:29;;;;;;;15.55;8.15;;;;;;;9.10;49.44;98059.81;1719787;83;21086;-62
2021/04/06 06:52:55;;;;;;;15.38;8.73;;;;;;;9.23;49.37;98059.47;1719303;83;21398;-61
2021/04/06 06:55:25;;;;;;;19.05;9.15;;;;;;;9.35;49.18;98055.34;1719681;83;21583;-59
2021/04/06 06:58:04;;;;;;;16.73;8.48;;;;;;;9.45;48.99;98053.84;1719589;83;21131;-60
2021/04/06 07:00:32;;;;;;;14.80;7.00;;;;;;;9.46;48.44;98054.22;1719621;83;21127;-61
2021/04/06 07:03:00;;;;;;;15.18;7.33;;;;;;;9.48;48.49;98058.86;1719639;83;21120;-61
2021/04/06 07:05:29;;;;;;;37.23;9.65;;;;;;;9.53;48.58;98054.24;1719788;83;22294;-63
2021/04/06 07:08:09;;;;;;;42.78;10.18;;;;;;;9.62;48.41;98052.38;1719552;83;21557;-62
2021/04/06 07:10:42;;;;;;;11.25;7.22;;;;;;;9.75;48.24;98049.89;1719643;83;21504;-62
2021/04/06 07:13:28;;;;;;;15.18;7.35;;;;;;;9.92;47.87;98050.16;1719522;83;21171;-62
2021/04/06 07:15:56;;;;;;;31.77;8.55;;;;;;;10.06;47.44;98050.60;1719613;83;21099;-62
2021/04/06 07:18:25;;;;;;;16.57;6.62;;;;;;;10.17;45.84;98051.63;1719630;83;21492;-63
2021/04/06 07:21:01;;;;;;;16.40;7.75;;;;;;;10.22;45.57;98053.48;1712540;83;21612;-62
2021/04/06 07:24:04;;;;;;;14.63;7.60;;;;;;;10.34;45.05;98057.92;1706848;84;21183;-64
2021/04/06 07:26:34;;;;;;;13.15;7.25;;;;;;;10.45;44.66;98055.94;1706992;84;21608;-65
2021/04/06 07:29:05;;;;;;;13.48;8.78;;;;;;;10.58;44.86;98043.84;1706609;84;21148;-66
2021/04/06 07:31:34;;;;;;;17.25;8.13;;;;;;;10.74;45.21;98049.35;1706608;84;21367;-63
2021/04/06 07:34:09;;;;;;;14.50;8.63;;;;;;;10.92;44.37;98046.86;1706179;84;21151;-64
2021/04/06 07:36:36;;;;;;;14.90;6.78;;;;;;;11.12;44.00;98049.45;1665247;84;21204;-63
2021/04/06 07:39:10;;;;;;;8.68;6.28;;;;;;;11.38;43.23;98049.39;1706075;84;21187;-63
2021/04/06 07:41:44;;;;;;;8.95;5.42;;;;;;;11.59;43.01;98044.97;1706324;84;21088;-65
2021/04/06 07:44:14;;;;;;;18.95;6.92;;;;;;;11.79;42.00;98044.44;1706351;84;21267;-62
2021/04/06 07:46:47;;;;;;;15.78;6.37;;;;;;;11.92;40.62;98040.53;1706133;83;21585;-61
2021/04/06 07:49:32;;;;;;;20.80;6.67;;;;;;;11.99;40.95;98042.59;1706398;82;21099;-62
2021/04/06 07:52:04;;;;;;;17.12;8.10;;;;;;;12.12;41.09;98041.75;1706386;83;21548;-64
2021/04/06 07:54:43;;;;;;;19.05;7.00;;;;;;;12.27;40.91;98037.58;1682810;84;21517;-61
2021/04/06 07:57:10;;;;;;;15.63;7.25;;;;;;;12.41;40.52;98036.59;1706396;84;21966;-63
2021/04/06 07:59:40;;;;;;;22.50;8.58;;;;;;;12.55;40.57;98036.92;1706348;83;21525;-65
2021/04/06 08:02:14;;;;;;;8.15;6.47;;;;;;;12.70;40.15;98041.02;1706332;83;21195;-64
2021/04/06 08:04:48;;;;;;;;;;;;;;;12.81;40.08;98040.23;1708849;84;21172;-63
2021/04/06 08:07:32;;;;;;;21.00;7.55;;;;;;;12.97;40.36;98036.88;1706380;84;20248;-63
2021/04/06 08:10:21;;;;;;;18.48;7.40;;;;;;;13.17;40.02;98036.27;1706207;83;21404;-62
2021/04/06 08:13:10;;;;;;;19.60;7.70;;;;;;;13.32;40.00;98031.19;1705452;83;21660;-63
2021/04/06 08:15:38;;;;;;;17.80;10.28;;;;;;;13.56;39.94;98029.81;1660088;85;21553;-63
2021/04/06 08:18:06;;;;;;;10.75;7.95;;;;;;;13.67;40.43;98034.20;1679800;85;21622;-64
2021/04/06 08:20:43;;;;;;;33.15;10.20;;;;;;;13.83;40.38;98032.06;1646532;87;21568;-63
2021/04/06 08:23:35;;;;;;;15.83;7.58;;;;;;;14.01;39.36;98038.47;1626385;88;22293;-64
2021/04/06 08:26:05;;;;;;;13.85;7.28;;;;;;;14.07;39.02;98038.47;1662532;85;21647;-67
2021/04/06 08:28:37;;;;;;;51.73;10.60;;;;;;;14.21;38.79;98039.99;1604949;87;21632;-64
2021/04/06 08:31:26;;;;;;;22.93;6.95;;;;;;;14.30;38.57;98041.42;1626197;88;21223;-65
2021/04/06 08:33:56;;;;;;;15.15;7.12;;;;;;;14.45;38.26;98040.70;1626333;88;21124;-67
2021/04/06 08:36:26;;;;;;;9.65;5.62;;;;;;;14.55;37.44;98036.41;1679930;85;21442;-68
2021/04/06 08:38:56;;;;;;;31.12;7.10;;;;;;;14.62;36.68;98028.88;1647147;87;21624;-66
2021/04/06 08:41:36;;;;;;;12.37;6.10;;;;;;;14.70;36.67;98029.11;1647045;86;21576;-66
2021/04/06 08:44:09;;;;;;;6.65;4.97;;;;;;;14.82;36.21;98022.86;1647089;86;21147;-66
2021/04/06 08:46:46;;;;;;;15.28;6.47;;;;;;;14.96;35.35;98018.66;1624769;87;21088;-63
2021/04/06 08:49:25;;;;;;;22.67;7.12;;;;;;;15.09;35.30;98021.91;1670468;85;22324;-64
2021/04/06 08:51:56;;;;;;;8.73;5.50;;;;;;;15.25;34.86;98016.23;1612647;87;21179;-66
2021/04/06 08:54:30;;;;;;;10.08;5.22;;;;;;;15.35;34.37;98022.86;1670556;86;21163;-65
2021/04/06 08:57:00;;;;;;;21.70;6.90;;;;;;;15.35;34.18;98020.23;1670674;86;21076;-66
2021/04/06 08:59:42;;;;;;;13.72;5.37;;;;;;;15.42;34.16;98020.05;1670599;85;21116;-66
2021/04/06 09:02:13;;;;;;;17.93;4.73;;;;;;;15.54;32.71;98014.27;1670810;86;21287;-65
2021/04/06 09:04:50;;;;;;;14.53;4.87;;;;;;;15.61;32.08;98016.25;1670456;86;21183;-65
2021/04/06 09:07:28;;;;;;;19.48;5.30;;;;;;;15.76;31.81;98012.83;1670505;84;21453;-65
2021/04/06 09:10:10;;;;;;;11.50;4.55;;;;;;;15.88;30.85;98005.69;1670279;86;21084;-65
2021/04/06 09:12:42;;;;;;;22.82;4.97;;;;;;;15.83;30.60;98002.15;1670656;86;21083;-63
2021/04/06 09:15:12;;;;;;;10.30;3.95;;;;;;;15.78;30.22;98005.19;1679367;85;22252;-65
2021/04/06 09:17:41;;;;;;;8.68;4.72;;;;;;;15.72;30.18;98009.63;1640253;87;21124;-63
2021/04/06 09:20:14;;;;;;;10.20;4.53;;;;;;;15.67;30.44;98005.26;1681386;85;21139;-66
2021/04/06 09:22:47;;;;;;;5.97;4.33;;;;;;;15.71;30.17;98004.52;1680027;85;21202;-66
2021/04/06 09:25:28;;;;;;;16.12;5.62;;;;;;;15.75;29.23;97998.06;1681536;85;21576;-65
2021/04/06 09:28:00;;;;;;;15.85;4.37;;;;;;;15.71;29.75;97994.87;1682535;85;21522;-65
2021/04/06 09:30:33;;;;;;;10.07;5.07;;;;;;;15.73;29.69;97984.25;1682730;85;21109;-65
2021/04/06 09:33:11;;;;;;;24.67;5.83;;;;;;;15.65;30.22;97993.24;1681027;85;21782;-65
2021/04/06 09:35:39;;;;;;;10.20;4.35;;;;;;;15.61;30.66;97986.59;1679717;85;21159;-64
2021/04/06 09:38:08;;;;;;;19.42;8.08;;;;;;;15.61;31.37;97986.59;1681517;85;21091;-66
2021/04/06 09:40:40;;;;;;;12.23;5.08;;;;;;;15.59;30.89;97983.30;1682534;85;21221;-65
2021/04/06 09:43:09;;;;;;;32.38;6.70;;;;;;;15.55;31.33;97989.25;1682706;85;21513;-66
2021/04/06 09:45:39;;;;;;;9.10;4.35;;;;;;;15.51;31.58;97989.16;1682537;85;21109;-64
2021/04/06 09:48:13;;;;;;;17.23;5.75;;;;;;;15.45;31.94;97983.11;1682525;85;21072;-64
2021/04/06 09:50:58;;;;;;;12.70;4.67;;;;;;;15.39;31.90;97992.31;1682509;85;21216;-64
2021/04/06 09:53:26;;;;;;;29.25;5.58;;;;;;;15.33;31.81;97989.41;1682544;85;21285;-66
2021/04/06 09:55:57;;;;;;;15.13;5.05;;;;;;;15.19;30.75;97984.50;1682474;85;21154;-66
2021/04/06 09:58:25;;;;;;;16.07;5.53;;;;;;;15.07;30.54;97982.41;1682557;85;21222;-65
2021/04/06 10:00:53;;;;;;;26.02;6.10;;;;;;;14.94;30.90;97978.68;1682457;85;21185;-65
2021/04/06 10:03:26;;;;;;;9.88;4.60;;;;;;;14.93;31.80;97974.88;1682541;85;21900;-66
2021/04/06 10:06:08;;;;;;;26.73;6.17;;;;;;;14.98;32.27;97976.64;1682539;85;21388;-65
2021/04/06 10:08:36;;;;;;;7.78;4.72;;;;;;;15.01;31.97;97980.29;1682604;85;21159;-65
2021/04/06 10:11:04;;;;;;;8.28;4.35;;;;;;;14.93;31.95;97978.80;1682599;85;21589;-66
2021/04/06 10:13:35;;;;;;;25.70;7.15;;;;;;;14.92;32.10;97978.45;1682417;85;21159;-67
2021/04/06 10:16:20;;;;;;;8.48;4.45;;;;;;;14.97;32.18;97970.58;1682507;85;21115;-66
2021/04/06 10:18:48;;;;;;;8.30;4.55;;;;;;;15.04;32.06;97965.64;1682530;85;21215;-65
2021/04/06 10:21:24;;;;;;;28.30;6.47;;;;;;;15.16;32.39;97964.63;1682439;85;21128;-65
2021/04/06 10:24:06;;;;;;;20.55;5.92;;;;;;;15.25;31.67;97961.70;1682318;85;21231;-65
2021/04/06 10:26:33;;;;;;;6.85;4.22;;;;;;;15.31;32.02;97958.58;1682547;85;21555;-65
2021/04/06 10:29:05;;;;;;;15.48;5.37;;;;;;;15.40;31.24;97957.77;1682502;85;21667;-67
2021/04/06 10:31:48;;;;;;;6.75;3.98;;;;;;;15.46;30.77;97950.72;1682445;85;21447;-65
2021/04/06 10:34:15;;;;;;;7.20;3.98;;;;;;;15.49;30.29;97952.59;1682471;85;21167;-65
2021/04/06 10:37:07;;;;;;;5.45;4.15;;;;;;;15.53;30.09;97947.93;1682436;85;21234;-65
2021/04/06 10:39:41;;;;;;;11.05;4.03;;;;;;;15.57;29.77;97948.05;1677739;84;21551;-67
2021/04/06 10:42:12;;;;;;;14.05;10.85;;;;;;;15.58;29.91;97948.89;1682480;85;21089;-66
2021/04/06 10:44:41;;;;;;;7.67;4.40;;;;;;;15.59;30.25;97946.11;1682474;85;22260;-65
2021/04/06 10:47:09;;;;;;;11.63;5.08;;;;;;;15.62;29.79;97941.09;1682443;85;21179;-66
2021/04/06 10:49:36;;;;;;;12.30;4.25;;;;;;;15.68;30.03;97944.02;1682467;84;21497;-66
2021/04/06 10:52:10;;;;;;;37.20;5.30;;;;;;;15.74;30.27;97938.73;1682463;85;21144;-68
2021/04/06 10:54:36;;;;;;;8.53;3.80;;;;;;;15.84;30.87;97944.34;1682437;85;21192;-67
2021/04/06 10:57:04;;;;;;;14.45;4.12;;;;;;;15.96;30.39;97936.38;1682446;85;21399;-66
2021/04/06 10:59:36;;;;;;;9.83;4.05;;;;;;;16.04;30.29;97933.42;1678338;85;21592;-65
2021/04/06 11:02:07;;;;;;;5.62;4.03;;;;;;;16.15;30.05;97929.38;1682442;85;21131;-65
2021/04/06 11:04:39;;;;;;;5.40;4.28;;;;;;;16.21;29.68;97922.74;1682481;85;21136;-67
2021/04/06 11:07:10;;;;;;;18.40;4.62;;;;;;;16.30;29.78;97923.25;1682583;85;21141;-68
2021/04/06 11:09:46;;;;;;;6.70;3.83;;;;;;;16.26;28.45;97914.47;1682672;85;21400;-65
2021/04/06 11:12:16;;;;;;;3.90;3.35;;;;;;;16.26;28.45;97914.47;1683100;85;21183;-68
2021/04/06 11:14:46;;;;;;;6.92;4.25;;;;;;;16.10;28.35;97903.20;1682712;85;21108;-67
2021/04/06 11:17:14;;;;;;;31.23;4.80;;;;;;;16.01;29.27;97894.34;1682730;85;21596;-66
2021/04/06 11:20:02;;;;;;;5.00;3.60;;;;;;;15.98;29.35;97895.95;1682512;85;21164;-64
2021/04/06 11:22:30;;;;;;;3.62;3.33;;;;;;;15.97;29.36;97902.64;1682364;85;21223;-65
2021/04/06 11:24:59;;;;;;;13.08;4.37;;;;;;;15.98;29.52;97902.99;1681279;84;21211;-68
2021/04/06 11:27:26;;;;;;;11.90;4.62;;;;;;;15.91;29.55;97900.55;1681894;85;21136;-66
2021/04/06 11:29:55;;;;;;;17.82;4.95;;;;;;;15.91;29.55;97900.55;1682285;85;21151;-66
2021/04/06 11:32:31;;;;;;;18.98;5.08;;;;;;;15.84;29.82;97900.25;1682455;85;21160;-66
2021/04/06 11:34:59;;;;;;;5.00;3.40;;;;;;;15.79;30.09;97901.95;1682444;85;21492;-66
2021/04/06 11:40:02;;;;;;;13.03;4.62;;;;;;;15.58;29.83;97893.38;1682590;85;21180;-65
2021/04/06 11:42:30;;;;;;;10.43;3.60;;;;;;;15.58;29.83;97893.38;1682540;85;21140;-67
2021/04/06 11:45:08;;;;;;;;;;;;;;;;;;;;;
2021/04/06 11:47:46;;;;;;;43.78;7.03;;;;;;;15.23;31.21;97874.09;1682567;85;21396;-66
2021/04/06 11:50:52;;;;;;;18.02;4.65;;;;;;;15.17;31.65;97879.88;1682404;85;21623;-66
2021/04/06 11:53:19;;;;;;;15.20;4.62;;;;;;;15.22;31.95;97874.22;1682562;85;21100;-67
2021/04/06 11:55:48;;;;;;;11.85;4.67;;;;;;;15.30;31.69;97876.55;1653825;85;21098;-65
2021/04/06 11:58:16;;;;;;;5.80;3.67;;;;;;;15.36;31.13;97870.78;1681821;85;21092;-65
2021/04/06 12:00:43;;;;;;;13.18;4.30;;;;;;;15.37;31.17;97871.14;1680918;85;21380;-65
2021/04/06 12:03:11;;;;;;;11.35;4.17;;;;;;;15.43;31.51;97864.03;1675952;85;21191;-66